sensor_id;sensor_type;location;lat;lon;timestamp;temperature;humidity
12632;DHT22;6381;45.748;12.106;2022-10-26T00:01:29;16.60;99.90
12632;DHT22;6381;45.748;12.106;2022-10-26T00:03:58;16.60;99.90
12632;DHT22;6381;45.748;12.106;2022-10-26T00:06:27;16.30;99.90
12632;DHT22;6381;45.748;12.106;2022-10-26T00:08:57;16.40;99.90
12632;DHT22;6381;45.748;12.106;2022-10-26T00:11:25;16.50;99.90
12632;DHT22;6381;45.748;12.106;2022-10-26T00:13:54;16.60;99.90
12632;DHT22;6381;45.748;12.106;2022-10-26T00:16:25;16.80;99.90
12632;DHT22;6381;45.748;12.106;2022-10-26T00:18:56;16.90;99.90
12632;DHT22;6381;45.748;12.106;2022-10-26T00:21:24;17.00;99.90
12632;DHT22;6381;45.748;12.106;2022-10-26T00:23:53;16.90;99.90
12632;DHT22;6381;45.748;12.106;2022-10-26T00:26:22;17.00;99.90
12632;DHT22;6381;45.748;12.106;2022-10-26T00:28:52;17.00;99.90
12632;DHT22;6381;45.748;12.106;2022-10-26T00:31:21;17.10;99.90
12632;DHT22;6381;45.748;12.106;2022-10-26T00:33:51;17.10;99.90
12632;DHT22;6381;45.748;12.106;2022-10-26T00:36:22;17.10;99.90
12632;DHT22;6381;45.748;12.106;2022-10-26T00:38:53;17.10;99.90
12632;DHT22;6381;45.748;12.106;2022-10-26T00:41:24;17.00;99.90
12632;DHT22;6381;45.748;12.106;2022-10-26T00:43:53;17.00;99.90
12632;DHT22;6381;45.748;12.106;2022-10-26T00:46:24;16.90;99.90
12632;DHT22;6381;45.748;12.106;2022-10-26T00:48:56;16.90;99.90
12632;DHT22;6381;45.748;12.106;2022-10-26T00:51:30;16.80;99.90
12632;DHT22;6381;45.748;12.106;2022-10-26T00:54:02;16.70;99.90
12632;DHT22;6381;45.748;12.106;2022-10-26T00:56:32;16.80;99.90
12632;DHT22;6381;45.748;12.106;2022-10-26T00:59:05;16.60;99.90
12632;DHT22;6381;45.748;12.106;2022-10-26T01:01:38;16.60;99.90
12632;DHT22;6381;45.748;12.106;2022-10-26T01:04:08;17.00;99.90
12632;DHT22;6381;45.748;12.106;2022-10-26T01:06:40;16.80;99.90
12632;DHT22;6381;45.748;12.106;2022-10-26T01:09:09;17.00;99.90
12632;DHT22;6381;45.748;12.106;2022-10-26T01:11:39;17.00;99.90
12632;DHT22;6381;45.748;12.106;2022-10-26T01:14:09;17.10;99.90
12632;DHT22;6381;45.748;12.106;2022-10-26T01:16:50;17.10;99.90
12632;DHT22;6381;45.748;12.106;2022-10-26T01:19:45;17.00;99.90
12632;DHT22;6381;45.748;12.106;2022-10-26T01:22:21;17.10;99.90
12632;DHT22;6381;45.748;12.106;2022-10-26T01:25:06;17.10;99.90
12632;DHT22;6381;45.748;12.106;2022-10-26T01:27:40;17.20;99.90
12632;DHT22;6381;45.748;12.106;2022-10-26T01:30:31;17.10;99.90
12632;DHT22;6381;45.748;12.106;2022-10-26T01:33:14;17.00;99.90
12632;DHT22;6381;45.748;12.106;2022-10-26T01:35:51;17.00;99.90
12632;DHT22;6381;45.748;12.106;2022-10-26T01:38:27;17.10;99.90
12632;DHT22;6381;45.748;12.106;2022-10-26T01:41:02;16.90;99.90
12632;DHT22;6381;45.748;12.106;2022-10-26T01:43:35;17.00;99.90
12632;DHT22;6381;45.748;12.106;2022-10-26T01:46:07;17.10;99.90
12632;DHT22;6381;45.748;12.106;2022-10-26T01:48:39;16.90;99.90
12632;DHT22;6381;45.748;12.106;2022-10-26T01:51:10;16.80;99.90
12632;DHT22;6381;45.748;12.106;2022-10-26T01:53:44;16.80;99.90
12632;DHT22;6381;45.748;12.106;2022-10-26T01:56:18;16.60;99.90
12632;DHT22;6381;45.748;12.106;2022-10-26T02:08:19;16.80;99.90
12632;DHT22;6381;45.748;12.106;2022-10-26T02:10:58;16.70;99.90
12632;DHT22;6381;45.748;12.106;2022-10-26T02:13:37;16.90;99.90
12632;DHT22;6381;45.748;12.106;2022-10-26T02:16:16;17.00;99.90
12632;DHT22;6381;45.748;12.106;2022-10-26T02:18:52;16.90;99.90
12632;DHT22;6381;45.748;12.106;2022-10-26T02:21:27;16.90;99.90
12632;DHT22;6381;45.748;12.106;2022-10-26T02:23:57;17.00;99.90
12632;DHT22;6381;45.748;12.106;2022-10-26T02:26:28;16.90;99.90
12632;DHT22;6381;45.748;12.106;2022-10-26T02:29:02;16.80;99.90
12632;DHT22;6381;45.748;12.106;2022-10-26T02:31:33;16.90;99.90
12632;DHT22;6381;45.748;12.106;2022-10-26T02:34:04;16.80;99.90
12632;DHT22;6381;45.748;12.106;2022-10-26T02:36:39;16.70;99.90
12632;DHT22;6381;45.748;12.106;2022-10-26T02:39:10;16.80;99.90
12632;DHT22;6381;45.748;12.106;2022-10-26T02:41:41;16.70;99.90
12632;DHT22;6381;45.748;12.106;2022-10-26T02:44:15;16.80;99.90
12632;DHT22;6381;45.748;12.106;2022-10-26T02:46:46;16.60;99.90
12632;DHT22;6381;45.748;12.106;2022-10-26T02:49:15;16.50;99.90
12632;DHT22;6381;45.748;12.106;2022-10-26T02:51:48;16.40;99.90
12632;DHT22;6381;45.748;12.106;2022-10-26T02:54:25;16.20;99.90
12632;DHT22;6381;45.748;12.106;2022-10-26T02:56:58;16.30;99.90
12632;DHT22;6381;45.748;12.106;2022-10-26T02:59:33;16.20;99.90
12632;DHT22;6381;45.748;12.106;2022-10-26T03:02:04;16.30;99.90
12632;DHT22;6381;45.748;12.106;2022-10-26T03:04:33;16.20;99.90
12632;DHT22;6381;45.748;12.106;2022-10-26T03:07:04;16.10;99.90
12632;DHT22;6381;45.748;12.106;2022-10-26T03:09:32;16.10;99.90
12632;DHT22;6381;45.748;12.106;2022-10-26T03:12:01;16.10;99.90
12632;DHT22;6381;45.748;12.106;2022-10-26T03:14:30;16.00;99.90
12632;DHT22;6381;45.748;12.106;2022-10-26T03:16:59;16.10;99.90
12632;DHT22;6381;45.748;12.106;2022-10-26T03:19:28;16.30;99.90
12632;DHT22;6381;45.748;12.106;2022-10-26T03:21:56;16.40;99.90
12632;DHT22;6381;45.748;12.106;2022-10-26T03:24:27;16.10;99.90
12632;DHT22;6381;45.748;12.106;2022-10-26T03:26:55;16.10;99.90
12632;DHT22;6381;45.748;12.106;2022-10-26T03:29:28;16.20;99.90
12632;DHT22;6381;45.748;12.106;2022-10-26T03:31:57;16.20;99.90
12632;DHT22;6381;45.748;12.106;2022-10-26T03:34:26;15.90;99.90
12632;DHT22;6381;45.748;12.106;2022-10-26T03:36:54;15.80;99.90
12632;DHT22;6381;45.748;12.106;2022-10-26T03:39:23;15.90;99.90
12632;DHT22;6381;45.748;12.106;2022-10-26T03:41:53;15.80;99.90
12632;DHT22;6381;45.748;12.106;2022-10-26T03:44:22;15.70;99.90
12632;DHT22;6381;45.748;12.106;2022-10-26T03:46:51;15.70;99.90
12632;DHT22;6381;45.748;12.106;2022-10-26T03:49:20;15.70;99.90
12632;DHT22;6381;45.748;12.106;2022-10-26T03:51:49;15.70;99.90
12632;DHT22;6381;45.748;12.106;2022-10-26T03:54:17;15.70;99.90
12632;DHT22;6381;45.748;12.106;2022-10-26T03:56:46;15.80;99.90
12632;DHT22;6381;45.748;12.106;2022-10-26T03:59:22;16.00;99.90
12632;DHT22;6381;45.748;12.106;2022-10-26T04:01:51;15.90;99.90
12632;DHT22;6381;45.748;12.106;2022-10-26T04:04:24;15.70;99.90
12632;DHT22;6381;45.748;12.106;2022-10-26T04:06:52;15.70;99.90
12632;DHT22;6381;45.748;12.106;2022-10-26T04:09:21;15.80;99.90
12632;DHT22;6381;45.748;12.106;2022-10-26T04:11:50;15.60;99.90
12632;DHT22;6381;45.748;12.106;2022-10-26T04:14:19;16.00;99.90
12632;DHT22;6381;45.748;12.106;2022-10-26T04:16:49;15.90;99.90
12632;DHT22;6381;45.748;12.106;2022-10-26T04:19:18;16.00;99.90
12632;DHT22;6381;45.748;12.106;2022-10-26T04:21:47;16.20;99.90
12632;DHT22;6381;45.748;12.106;2022-10-26T04:24:18;16.20;99.90
12632;DHT22;6381;45.748;12.106;2022-10-26T04:26:47;16.20;99.90
12632;DHT22;6381;45.748;12.106;2022-10-26T04:29:15;16.20;99.90
12632;DHT22;6381;45.748;12.106;2022-10-26T04:31:44;16.10;99.90
12632;DHT22;6381;45.748;12.106;2022-10-26T04:34:15;16.10;99.90
12632;DHT22;6381;45.748;12.106;2022-10-26T04:36:43;16.00;99.90
12632;DHT22;6381;45.748;12.106;2022-10-26T04:39:12;16.00;99.90
12632;DHT22;6381;45.748;12.106;2022-10-26T04:41:41;15.90;99.90
12632;DHT22;6381;45.748;12.106;2022-10-26T04:44:10;15.80;99.90
12632;DHT22;6381;45.748;12.106;2022-10-26T04:46:39;15.80;99.90
12632;DHT22;6381;45.748;12.106;2022-10-26T04:49:08;16.00;99.90
12632;DHT22;6381;45.748;12.106;2022-10-26T04:51:38;16.20;99.90
12632;DHT22;6381;45.748;12.106;2022-10-26T04:54:07;16.40;99.90
12632;DHT22;6381;45.748;12.106;2022-10-26T04:56:36;16.40;99.90
12632;DHT22;6381;45.748;12.106;2022-10-26T04:59:05;16.30;99.90
12632;DHT22;6381;45.748;12.106;2022-10-26T05:01:34;16.30;99.90
12632;DHT22;6381;45.748;12.106;2022-10-26T05:04:03;16.30;99.90
12632;DHT22;6381;45.748;12.106;2022-10-26T05:06:32;16.10;99.90
12632;DHT22;6381;45.748;12.106;2022-10-26T05:09:03;16.20;99.90
12632;DHT22;6381;45.748;12.106;2022-10-26T05:11:31;16.00;99.90
12632;DHT22;6381;45.748;12.106;2022-10-26T05:14:00;16.00;99.90
12632;DHT22;6381;45.748;12.106;2022-10-26T05:16:31;16.20;99.90
12632;DHT22;6381;45.748;12.106;2022-10-26T05:19:00;16.40;99.90
12632;DHT22;6381;45.748;12.106;2022-10-26T05:21:29;16.50;99.90
12632;DHT22;6381;45.748;12.106;2022-10-26T05:23:58;16.50;99.90
12632;DHT22;6381;45.748;12.106;2022-10-26T05:26:28;16.40;99.90
12632;DHT22;6381;45.748;12.106;2022-10-26T05:28:57;16.40;99.90
12632;DHT22;6381;45.748;12.106;2022-10-26T05:31:26;16.20;99.90
12632;DHT22;6381;45.748;12.106;2022-10-26T05:33:55;16.30;99.90
12632;DHT22;6381;45.748;12.106;2022-10-26T05:36:24;16.50;99.90
12632;DHT22;6381;45.748;12.106;2022-10-26T05:38:56;16.60;99.90
12632;DHT22;6381;45.748;12.106;2022-10-26T05:41:25;16.60;99.90
12632;DHT22;6381;45.748;12.106;2022-10-26T05:43:56;16.60;99.90
12632;DHT22;6381;45.748;12.106;2022-10-26T05:46:25;16.70;99.90
12632;DHT22;6381;45.748;12.106;2022-10-26T05:48:54;16.60;99.90
12632;DHT22;6381;45.748;12.106;2022-10-26T05:51:22;16.70;99.90
12632;DHT22;6381;45.748;12.106;2022-10-26T05:53:51;16.60;99.90
12632;DHT22;6381;45.748;12.106;2022-10-26T05:56:33;16.60;99.90
12632;DHT22;6381;45.748;12.106;2022-10-26T05:59:10;16.50;99.90
12632;DHT22;6381;45.748;12.106;2022-10-26T06:01:52;16.50;99.90
12632;DHT22;6381;45.748;12.106;2022-10-26T06:04:30;16.30;99.90
12632;DHT22;6381;45.748;12.106;2022-10-26T06:07:02;16.20;99.90
12632;DHT22;6381;45.748;12.106;2022-10-26T06:09:32;16.40;99.90
12632;DHT22;6381;45.748;12.106;2022-10-26T06:12:03;16.50;99.90
12632;DHT22;6381;45.748;12.106;2022-10-26T06:14:35;16.70;99.90
12632;DHT22;6381;45.748;12.106;2022-10-26T06:17:13;16.50;99.90
12632;DHT22;6381;45.748;12.106;2022-10-26T06:20:11;16.50;99.90
12632;DHT22;6381;45.748;12.106;2022-10-26T06:22:53;16.60;99.90
12632;DHT22;6381;45.748;12.106;2022-10-26T06:25:32;16.70;99.90
12632;DHT22;6381;45.748;12.106;2022-10-26T06:28:14;16.70;99.90
12632;DHT22;6381;45.748;12.106;2022-10-26T06:30:47;16.80;99.90
12632;DHT22;6381;45.748;12.106;2022-10-26T06:33:16;16.80;99.90
12632;DHT22;6381;45.748;12.106;2022-10-26T06:36:05;16.70;99.90
12632;DHT22;6381;45.748;12.106;2022-10-26T06:38:37;16.70;99.90
12632;DHT22;6381;45.748;12.106;2022-10-26T06:41:11;16.70;99.90
12632;DHT22;6381;45.748;12.106;2022-10-26T06:43:43;16.80;99.90
12632;DHT22;6381;45.748;12.106;2022-10-26T06:46:21;16.80;99.90
12632;DHT22;6381;45.748;12.106;2022-10-26T06:48:57;17.00;99.90
12632;DHT22;6381;45.748;12.106;2022-10-26T06:51:29;17.00;99.90
12632;DHT22;6381;45.748;12.106;2022-10-26T06:54:04;17.00;99.90
12632;DHT22;6381;45.748;12.106;2022-10-26T06:56:36;16.90;99.90
12632;DHT22;6381;45.748;12.106;2022-10-26T06:59:08;17.00;99.90
12632;DHT22;6381;45.748;12.106;2022-10-26T07:01:42;16.90;99.90
12632;DHT22;6381;45.748;12.106;2022-10-26T07:04:12;17.00;99.90
12632;DHT22;6381;45.748;12.106;2022-10-26T07:06:41;17.00;99.90
12632;DHT22;6381;45.748;12.106;2022-10-26T07:09:09;17.10;99.90
12632;DHT22;6381;45.748;12.106;2022-10-26T07:11:38;17.20;99.90
12632;DHT22;6381;45.748;12.106;2022-10-26T07:14:07;17.20;99.90
12632;DHT22;6381;45.748;12.106;2022-10-26T07:16:36;17.10;99.90
12632;DHT22;6381;45.748;12.106;2022-10-26T07:19:06;17.30;99.90
12632;DHT22;6381;45.748;12.106;2022-10-26T07:21:35;17.50;99.90
12632;DHT22;6381;45.748;12.106;2022-10-26T07:24:04;17.50;99.90
12632;DHT22;6381;45.748;12.106;2022-10-26T07:26:33;17.60;99.90
12632;DHT22;6381;45.748;12.106;2022-10-26T07:29:02;17.60;99.90
12632;DHT22;6381;45.748;12.106;2022-10-26T07:31:31;17.60;99.90
12632;DHT22;6381;45.748;12.106;2022-10-26T07:34:00;17.60;99.90
12632;DHT22;6381;45.748;12.106;2022-10-26T07:36:30;17.80;99.90
12632;DHT22;6381;45.748;12.106;2022-10-26T07:39:00;17.80;99.90
12632;DHT22;6381;45.748;12.106;2022-10-26T07:41:30;17.90;99.90
12632;DHT22;6381;45.748;12.106;2022-10-26T07:43:59;17.90;99.90
12632;DHT22;6381;45.748;12.106;2022-10-26T07:46:28;18.00;99.90
12632;DHT22;6381;45.748;12.106;2022-10-26T07:48:57;18.10;99.90
12632;DHT22;6381;45.748;12.106;2022-10-26T07:51:26;18.10;99.90
12632;DHT22;6381;45.748;12.106;2022-10-26T07:53:57;18.20;99.90
12632;DHT22;6381;45.748;12.106;2022-10-26T07:56:26;18.40;99.90
12632;DHT22;6381;45.748;12.106;2022-10-26T07:58:55;18.50;99.90
12632;DHT22;6381;45.748;12.106;2022-10-26T08:01:24;18.50;99.90
12632;DHT22;6381;45.748;12.106;2022-10-26T08:03:54;18.60;99.90
12632;DHT22;6381;45.748;12.106;2022-10-26T08:06:23;18.80;99.90
12632;DHT22;6381;45.748;12.106;2022-10-26T08:08:52;19.10;99.90
12632;DHT22;6381;45.748;12.106;2022-10-26T08:11:23;21.30;99.90
12632;DHT22;6381;45.748;12.106;2022-10-26T08:13:52;19.30;99.90
12632;DHT22;6381;45.748;12.106;2022-10-26T08:16:22;19.30;99.90
12632;DHT22;6381;45.748;12.106;2022-10-26T08:18:51;19.30;99.90
12632;DHT22;6381;45.748;12.106;2022-10-26T08:21:20;19.50;99.90
12632;DHT22;6381;45.748;12.106;2022-10-26T08:24:06;19.60;99.90
12632;DHT22;6381;45.748;12.106;2022-10-26T08:26:36;19.80;99.90
12632;DHT22;6381;45.748;12.106;2022-10-26T08:29:05;19.70;99.90
12632;DHT22;6381;45.748;12.106;2022-10-26T08:31:34;19.60;99.90
12632;DHT22;6381;45.748;12.106;2022-10-26T08:34:02;20.00;99.90
12632;DHT22;6381;45.748;12.106;2022-10-26T08:36:31;20.00;99.90
12632;DHT22;6381;45.748;12.106;2022-10-26T08:39:00;20.10;99.90
12632;DHT22;6381;45.748;12.106;2022-10-26T08:41:35;20.10;99.90
12632;DHT22;6381;45.748;12.106;2022-10-26T08:44:13;20.10;99.90
12632;DHT22;6381;45.748;12.106;2022-10-26T08:46:48;19.80;99.90
12632;DHT22;6381;45.748;12.106;2022-10-26T08:49:19;19.90;99.90
12632;DHT22;6381;45.748;12.106;2022-10-26T08:51:54;19.70;99.90
12632;DHT22;6381;45.748;12.106;2022-10-26T08:54:33;19.90;99.90
12632;DHT22;6381;45.748;12.106;2022-10-26T08:57:12;20.00;99.90
12632;DHT22;6381;45.748;12.106;2022-10-26T08:59:48;20.00;99.90
12632;DHT22;6381;45.748;12.106;2022-10-26T09:02:19;19.70;99.90
12632;DHT22;6381;45.748;12.106;2022-10-26T09:04:49;19.80;99.90
12632;DHT22;6381;45.748;12.106;2022-10-26T09:07:41;19.80;99.90
12632;DHT22;6381;45.748;12.106;2022-10-26T09:10:30;19.70;99.90
12632;DHT22;6381;45.748;12.106;2022-10-26T09:13:05;20.00;99.90
12632;DHT22;6381;45.748;12.106;2022-10-26T09:15:49;19.90;99.90
12632;DHT22;6381;45.748;12.106;2022-10-26T09:18:32;20.10;99.90
12632;DHT22;6381;45.748;12.106;2022-10-26T09:21:15;20.00;99.90
12632;DHT22;6381;45.748;12.106;2022-10-26T09:24:04;20.40;99.90
12632;DHT22;6381;45.748;12.106;2022-10-26T09:26:40;20.40;99.90
12632;DHT22;6381;45.748;12.106;2022-10-26T09:29:13;20.50;99.90
12632;DHT22;6381;45.748;12.106;2022-10-26T09:31:46;20.30;99.90
12632;DHT22;6381;45.748;12.106;2022-10-26T09:34:22;20.20;99.90
12632;DHT22;6381;45.748;12.106;2022-10-26T09:36:53;20.70;99.90
12632;DHT22;6381;45.748;12.106;2022-10-26T09:39:32;21.00;99.90
12632;DHT22;6381;45.748;12.106;2022-10-26T09:42:10;21.10;99.90
12632;DHT22;6381;45.748;12.106;2022-10-26T09:44:44;20.30;99.90
12632;DHT22;6381;45.748;12.106;2022-10-26T09:47:28;20.50;99.90
12632;DHT22;6381;45.748;12.106;2022-10-26T09:50:02;21.00;99.90
12632;DHT22;6381;45.748;12.106;2022-10-26T09:52:32;21.30;99.90
12632;DHT22;6381;45.748;12.106;2022-10-26T09:55:01;21.60;99.90
12632;DHT22;6381;45.748;12.106;2022-10-26T09:57:29;21.70;99.90
12632;DHT22;6381;45.748;12.106;2022-10-26T09:59:58;21.80;99.90
12632;DHT22;6381;45.748;12.106;2022-10-26T10:02:36;22.10;99.90
12632;DHT22;6381;45.748;12.106;2022-10-26T10:05:30;21.30;99.90
12632;DHT22;6381;45.748;12.106;2022-10-26T10:08:21;20.80;99.90
12632;DHT22;6381;45.748;12.106;2022-10-26T10:10:58;21.00;99.90
12632;DHT22;6381;45.748;12.106;2022-10-26T10:13:28;21.40;99.90
12632;DHT22;6381;45.748;12.106;2022-10-26T10:16:04;21.10;99.90
12632;DHT22;6381;45.748;12.106;2022-10-26T10:18:35;20.90;99.90
12632;DHT22;6381;45.748;12.106;2022-10-26T10:21:05;20.70;99.90
12632;DHT22;6381;45.748;12.106;2022-10-26T10:23:36;21.30;99.90
12632;DHT22;6381;45.748;12.106;2022-10-26T10:26:07;21.90;99.90
12632;DHT22;6381;45.748;12.106;2022-10-26T10:28:38;22.20;99.90
12632;DHT22;6381;45.748;12.106;2022-10-26T10:31:19;21.80;98.70
12632;DHT22;6381;45.748;12.106;2022-10-26T10:33:51;21.50;98.60
12632;DHT22;6381;45.748;12.106;2022-10-26T10:36:22;21.70;99.00
12632;DHT22;6381;45.748;12.106;2022-10-26T10:38:53;22.40;99.40
12632;DHT22;6381;45.748;12.106;2022-10-26T10:41:26;22.90;98.20
12632;DHT22;6381;45.748;12.106;2022-10-26T10:44:04;23.10;97.70
12632;DHT22;6381;45.748;12.106;2022-10-26T10:46:35;23.10;97.00
12632;DHT22;6381;45.748;12.106;2022-10-26T10:49:16;22.90;97.10
12632;DHT22;6381;45.748;12.106;2022-10-26T10:51:47;21.70;97.70
12632;DHT22;6381;45.748;12.106;2022-10-26T10:54:23;22.10;98.40
12632;DHT22;6381;45.748;12.106;2022-10-26T10:56:55;22.50;96.90
12632;DHT22;6381;45.748;12.106;2022-10-26T11:02:41;23.60;96.60
12632;DHT22;6381;45.748;12.106;2022-10-26T11:05:32;23.70;95.20
12632;DHT22;6381;45.748;12.106;2022-10-26T11:08:09;23.40;95.10
12632;DHT22;6381;45.748;12.106;2022-10-26T11:10:46;23.50;95.10
12632;DHT22;6381;45.748;12.106;2022-10-26T11:13:20;23.90;94.90
12632;DHT22;6381;45.748;12.106;2022-10-26T11:15:53;24.10;94.40
12632;DHT22;6381;45.748;12.106;2022-10-26T11:18:28;24.50;93.80
12632;DHT22;6381;45.748;12.106;2022-10-26T11:21:03;24.60;92.00
12632;DHT22;6381;45.748;12.106;2022-10-26T11:23:36;24.50;92.00
12632;DHT22;6381;45.748;12.106;2022-10-26T11:26:12;24.50;92.10
12632;DHT22;6381;45.748;12.106;2022-10-26T11:28:47;24.10;92.40
12632;DHT22;6381;45.748;12.106;2022-10-26T11:31:21;24.40;91.70
12632;DHT22;6381;45.748;12.106;2022-10-26T11:34:04;24.90;89.80
12632;DHT22;6381;45.748;12.106;2022-10-26T11:36:40;25.30;87.90
12632;DHT22;6381;45.748;12.106;2022-10-26T11:39:17;25.10;86.10
12632;DHT22;6381;45.748;12.106;2022-10-26T11:41:53;25.50;88.20
12632;DHT22;6381;45.748;12.106;2022-10-26T11:44:29;25.40;86.30
12632;DHT22;6381;45.748;12.106;2022-10-26T11:47:02;25.00;84.10
12632;DHT22;6381;45.748;12.106;2022-10-26T11:49:41;24.80;82.20
12632;DHT22;6381;45.748;12.106;2022-10-26T11:52:15;25.40;83.10
12632;DHT22;6381;45.748;12.106;2022-10-26T11:54:48;25.70;84.10
12632;DHT22;6381;45.748;12.106;2022-10-26T11:57:20;25.40;79.00
12632;DHT22;6381;45.748;12.106;2022-10-26T11:59:51;24.90;83.00
12632;DHT22;6381;45.748;12.106;2022-10-26T12:02:22;24.80;81.10
12632;DHT22;6381;45.748;12.106;2022-10-26T12:04:55;25.30;82.00
12632;DHT22;6381;45.748;12.106;2022-10-26T12:07:30;25.90;82.80
12632;DHT22;6381;45.748;12.106;2022-10-26T12:10:01;25.90;81.00
12632;DHT22;6381;45.748;12.106;2022-10-26T12:12:34;24.10;81.80
12632;DHT22;6381;45.748;12.106;2022-10-26T12:15:16;23.30;86.60
12632;DHT22;6381;45.748;12.106;2022-10-26T12:17:50;23.70;87.10
12632;DHT22;6381;45.748;12.106;2022-10-26T12:20:51;24.80;85.60
12632;DHT22;6381;45.748;12.106;2022-10-26T12:23:22;25.50;83.80
12632;DHT22;6381;45.748;12.106;2022-10-26T12:29:39;26.80;78.20
12632;DHT22;6381;45.748;12.106;2022-10-26T12:35:29;25.30;79.70
12632;DHT22;6381;45.748;12.106;2022-10-26T12:37:59;26.10;80.00
12632;DHT22;6381;45.748;12.106;2022-10-26T12:40:41;26.60;79.50
12632;DHT22;6381;45.748;12.106;2022-10-26T12:43:33;27.10;79.10
12632;DHT22;6381;45.748;12.106;2022-10-26T12:52:28;26.70;77.30
12632;DHT22;6381;45.748;12.106;2022-10-26T12:55:26;27.40;76.20
12632;DHT22;6381;45.748;12.106;2022-10-26T13:01:36;25.90;77.10
12632;DHT22;6381;45.748;12.106;2022-10-26T13:07:19;26.10;75.00
12632;DHT22;6381;45.748;12.106;2022-10-26T13:09:54;24.60;77.70
12632;DHT22;6381;45.748;12.106;2022-10-26T13:12:25;24.50;78.50
12632;DHT22;6381;45.748;12.106;2022-10-26T13:15:01;24.50;78.80
12632;DHT22;6381;45.748;12.106;2022-10-26T13:17:32;25.90;78.30
12632;DHT22;6381;45.748;12.106;2022-10-26T13:20:15;26.90;75.30
12632;DHT22;6381;45.748;12.106;2022-10-26T13:22:46;26.60;75.70
12632;DHT22;6381;45.748;12.106;2022-10-26T13:25:21;26.60;73.80
12632;DHT22;6381;45.748;12.106;2022-10-26T13:28:00;26.30;72.60
12632;DHT22;6381;45.748;12.106;2022-10-26T13:30:44;25.80;75.00
12632;DHT22;6381;45.748;12.106;2022-10-26T13:33:23;25.30;75.10
12632;DHT22;6381;45.748;12.106;2022-10-26T13:35:58;26.80;74.50
12632;DHT22;6381;45.748;12.106;2022-10-26T13:38:31;26.80;72.20
12632;DHT22;6381;45.748;12.106;2022-10-26T13:41:11;25.50;72.80
12632;DHT22;6381;45.748;12.106;2022-10-26T13:43:43;25.90;72.90
12632;DHT22;6381;45.748;12.106;2022-10-26T13:46:24;25.60;74.20
12632;DHT22;6381;45.748;12.106;2022-10-26T13:48:59;26.30;73.90
12632;DHT22;6381;45.748;12.106;2022-10-26T13:51:37;27.10;71.60
12632;DHT22;6381;45.748;12.106;2022-10-26T13:54:18;27.00;71.50
12632;DHT22;6381;45.748;12.106;2022-10-26T13:57:11;27.40;71.20
12632;DHT22;6381;45.748;12.106;2022-10-26T13:59:43;27.10;69.30
12632;DHT22;6381;45.748;12.106;2022-10-26T14:02:21;26.50;71.20
12632;DHT22;6381;45.748;12.106;2022-10-26T14:04:59;27.60;70.10
12632;DHT22;6381;45.748;12.106;2022-10-26T14:07:33;27.80;68.40
12632;DHT22;6381;45.748;12.106;2022-10-26T14:10:05;27.60;68.90
12632;DHT22;6381;45.748;12.106;2022-10-26T14:12:34;27.90;68.50
12632;DHT22;6381;45.748;12.106;2022-10-26T14:15:06;28.20;67.20
12632;DHT22;6381;45.748;12.106;2022-10-26T14:17:37;26.50;68.10
12632;DHT22;6381;45.748;12.106;2022-10-26T14:20:10;26.00;70.40
12632;DHT22;6381;45.748;12.106;2022-10-26T14:22:44;25.80;71.50
12632;DHT22;6381;45.748;12.106;2022-10-26T14:25:19;25.50;72.20
12632;DHT22;6381;45.748;12.106;2022-10-26T14:28:20;25.10;72.80
12632;DHT22;6381;45.748;12.106;2022-10-26T14:30:49;25.50;74.80
12632;DHT22;6381;45.748;12.106;2022-10-26T14:33:26;26.30;72.60
12632;DHT22;6381;45.748;12.106;2022-10-26T14:35:56;26.60;71.20
12632;DHT22;6381;45.748;12.106;2022-10-26T14:38:26;26.10;72.30
12632;DHT22;6381;45.748;12.106;2022-10-26T14:40:57;26.40;72.00
12632;DHT22;6381;45.748;12.106;2022-10-26T14:43:26;25.60;71.40
12632;DHT22;6381;45.748;12.106;2022-10-26T14:45:55;25.40;74.30
12632;DHT22;6381;45.748;12.106;2022-10-26T14:48:28;24.70;75.90
12632;DHT22;6381;45.748;12.106;2022-10-26T14:51:02;24.70;76.50
12632;DHT22;6381;45.748;12.106;2022-10-26T14:53:36;24.60;77.70
12632;DHT22;6381;45.748;12.106;2022-10-26T14:56:20;25.00;78.60
12632;DHT22;6381;45.748;12.106;2022-10-26T14:58:50;25.70;76.80
12632;DHT22;6381;45.748;12.106;2022-10-26T15:01:30;26.00;75.40
12632;DHT22;6381;45.748;12.106;2022-10-26T15:04:05;25.80;75.30
12632;DHT22;6381;45.748;12.106;2022-10-26T15:06:40;25.80;75.10
12632;DHT22;6381;45.748;12.106;2022-10-26T15:09:37;25.70;75.90
12632;DHT22;6381;45.748;12.106;2022-10-26T15:12:13;25.80;76.10
12632;DHT22;6381;45.748;12.106;2022-10-26T15:14:47;25.80;76.20
12632;DHT22;6381;45.748;12.106;2022-10-26T15:17:21;25.80;75.90
12632;DHT22;6381;45.748;12.106;2022-10-26T15:19:52;25.60;76.30
12632;DHT22;6381;45.748;12.106;2022-10-26T15:22:24;25.50;76.60
12632;DHT22;6381;45.748;12.106;2022-10-26T15:25:01;25.40;77.20
12632;DHT22;6381;45.748;12.106;2022-10-26T15:27:31;25.30;77.30
12632;DHT22;6381;45.748;12.106;2022-10-26T15:30:28;25.10;78.00
12632;DHT22;6381;45.748;12.106;2022-10-26T15:33:09;24.90;79.20
12632;DHT22;6381;45.748;12.106;2022-10-26T15:35:47;24.60;80.40
12632;DHT22;6381;45.748;12.106;2022-10-26T15:38:16;24.30;82.50
12632;DHT22;6381;45.748;12.106;2022-10-26T15:40:46;23.80;86.40
12632;DHT22;6381;45.748;12.106;2022-10-26T15:43:14;23.40;89.00
12632;DHT22;6381;45.748;12.106;2022-10-26T15:45:45;23.10;90.40
12632;DHT22;6381;45.748;12.106;2022-10-26T15:48:18;23.00;91.20
12632;DHT22;6381;45.748;12.106;2022-10-26T15:50:49;22.80;92.10
12632;DHT22;6381;45.748;12.106;2022-10-26T15:53:20;22.60;93.50
12632;DHT22;6381;45.748;12.106;2022-10-26T15:55:50;22.60;94.60
12632;DHT22;6381;45.748;12.106;2022-10-26T15:58:20;22.40;95.30
12632;DHT22;6381;45.748;12.106;2022-10-26T16:00:49;22.30;95.70
12632;DHT22;6381;45.748;12.106;2022-10-26T16:03:20;22.20;95.90
12632;DHT22;6381;45.748;12.106;2022-10-26T16:05:55;22.20;96.20
12632;DHT22;6381;45.748;12.106;2022-10-26T16:08:26;22.10;96.70
12632;DHT22;6381;45.748;12.106;2022-10-26T16:10:55;21.90;97.40
12632;DHT22;6381;45.748;12.106;2022-10-26T16:13:24;21.80;97.90
12632;DHT22;6381;45.748;12.106;2022-10-26T16:15:54;21.80;98.20
12632;DHT22;6381;45.748;12.106;2022-10-26T16:18:23;21.70;98.40
12632;DHT22;6381;45.748;12.106;2022-10-26T16:20:53;21.60;98.70
12632;DHT22;6381;45.748;12.106;2022-10-26T16:23:22;21.60;98.80
12632;DHT22;6381;45.748;12.106;2022-10-26T16:25:50;21.30;99.20
12632;DHT22;6381;45.748;12.106;2022-10-26T16:28:19;21.20;99.90
12632;DHT22;6381;45.748;12.106;2022-10-26T16:30:48;21.20;99.90
12632;DHT22;6381;45.748;12.106;2022-10-26T16:33:17;21.10;99.90
12632;DHT22;6381;45.748;12.106;2022-10-26T16:35:55;21.00;99.90
12632;DHT22;6381;45.748;12.106;2022-10-26T16:38:25;20.90;99.90
12632;DHT22;6381;45.748;12.106;2022-10-26T16:41:00;20.90;99.90